• Join FlightAware (Why Join?)
  • Login
  • US Flag 
09:45PM EDT


 

Airport Tracker/Info


-or-


 

Live Flight TrackerFlight Track Log ✈ SWA1729 ✈ 13-Jul-2013 ✈ KPVD - KFLL

Flight Track Log - Related Links

Times and Time Zones

All times are in EDT time to prevent confusion due to time zone crossing. See the SWA1729 flight status page for this flight to view local times or setup timezone preferences in your user account.

Time Position Orientation Groundspeed Altitude Reporting Facility
EDT Latitude Longitude Course Direction KTS MPH feet Rate Location/Type
07:39AM 41.7331 -71.4219 63° Northeast 142 163 700  Level Boston Center
07:40AM 41.7594 -71.3519 63° Northeast 223 257 2,600 2,220 Climbing Boston Center
07:42AM 41.6964 -71.2836 141° Southeast 253 291 7,100 2,700 Climbing Boston Center
07:43AM 41.6294 -71.2792 177° South 264 304 10,000 2,640 Climbing Boston Center
07:44AM 41.5336 -71.2725 177° South 302 348 12,400 2,580 Climbing Boston Center
07:45AM 41.4461 -71.2658 177° South 340 391 15,200 2,700 Climbing Boston Center
07:46AM 41.3356 -71.2597 178° South 367 422 17,900 2,340 Climbing Boston Center
07:47AM 41.2375 -71.2586 180° South 373 429 19,900 2,160 Climbing Boston Center
07:48AM 41.1444 -71.3239 208° Southwest 371 427 22,300 2,160 Climbing Boston Center
07:49AM 41.0978 -71.4567 245° Southwest 354 407 24,300 1,980 Climbing Boston Center
07:50AM 41.0428 -71.6061 244° Southwest 392 451 26,300 1,800 Climbing Boston Center
07:51AM 40.9978 -71.7472 247° West 406 467 27,900 1,740 Climbing Boston Center
07:52AM 40.9467 -71.8989 246° West 435 501 29,800 2,160 Climbing Boston Center
07:53AM 40.8847 -72.0475 241° Southwest 441 507 32,300 2,040 Climbing Boston Center
07:54AM 40.8308 -72.1933 244° Southwest 436 502 33,900 1,500 Climbing Boston Center
07:55AM 40.7769 -72.3414 244° Southwest 436 502 35,300 1,380 Climbing Boston Center
07:56AM 40.7208 -72.4811 242° Southwest 436 502 36,700 1,320 Climbing Boston Center
07:57AM 40.6600 -72.6206 240° Southwest 436 502 38,000 600 Climbing Boston Center
07:58AM 40.5642 -72.7242 219° Southwest 435 501 38,000  Level Boston Center
07:59AM 40.4719 -72.8275 220° Southwest 435 501 38,000  Level Boston Center
08:01AM 40.2986 -73.0322 222° Southwest 445 512 38,000  Level Washington Center
08:02AM 40.2050 -73.1361 220° Southwest 445 512 38,000  Level Washington Center
08:03AM 40.1114 -73.2422 221° Southwest 451 519 38,000  Level Washington Center
08:04AM 40.0194 -73.3456 221° Southwest 451 519 38,000  Level Washington Center
08:05AM 39.9133 -73.4572 219° Southwest 451 519 38,000  Level Washington Center
08:06AM 39.8253 -73.5597 222° Southwest 446 513 38,000  Level Washington Center
08:07AM 39.7311 -73.6622 220° Southwest 446 513 38,000  Level Washington Center
08:08AM 39.6392 -73.7672 221° Southwest 452 520 38,000  Level Washington Center
08:09AM 39.5447 -73.8719 221° Southwest 452 520 38,000  Level Washington Center
08:10AM 39.4525 -73.9736 220° Southwest 452 520 38,000  Level Washington Center
08:11AM 39.3581 -74.0750 220° Southwest 452 520 38,000  Level Washington Center
08:12AM 39.2656 -74.1789 221° Southwest 452 520 38,000  Level Washington Center
08:13AM 39.1728 -74.2797 220° Southwest 452 520 38,000  Level Washington Center
08:14AM 39.0800 -74.3803 220° Southwest 452 520 38,000  Level Washington Center
08:15AM 38.9872 -74.4808 220° Southwest 452 520 38,000 420 Level Washington Center
08:16AM 38.8858 -74.5703 214° Southwest 452 520 38,900 900 Climbing Washington Center
08:17AM 38.7825 -74.6569 213° Southwest 452 520 39,900 540 Climbing Washington Center
08:18AM 38.6767 -74.7408 212° Southwest 446 513 40,000  Climbing Washington Center
08:19AM 38.5731 -74.8164 210° Southwest 441 507 40,000  Level Washington Center
08:20AM 38.4692 -74.9022 213° Southwest 441 507 40,000  Level Washington Center
08:21AM 38.3633 -74.9800 210° Southwest 446 513 40,000  Level Washington Center
08:22AM 38.2719 -75.0600 215° Southwest 452 520 40,000  Level Washington Center
08:23AM 38.1658 -75.1350 209° Southwest 447 514 40,000  Level Washington Center
08:24AM 38.0600 -75.2147 211° Southwest 447 514 40,000  Level Washington Center
08:25AM 37.9600 -75.2942 212° Southwest 447 514 40,000  Level Washington Center
08:26AM 37.8558 -75.3736 211° Southwest 447 514 40,000  Level Washington Center
08:27AM 37.7622 -75.4736 220° Southwest 447 514 40,000  Level Washington Center
08:28AM 37.6725 -75.5786 223° Southwest 447 514 40,000  Level Washington Center
08:29AM 37.5786 -75.6861 222° Southwest 447 514 40,000  Level Washington Center
08:30AM 37.4911 -75.7908 224° Southwest 447 514 40,000  Level Washington Center
08:31AM 37.3989 -75.8978 223° Southwest 447 514 40,000  Level Washington Center
08:32AM 37.3089 -76.0019 223° Southwest 447 514 40,000  Level Washington Center
08:33AM 37.2250 -76.1161 227° Southwest 447 514 40,000  Level Washington Center
08:34AM 37.1433 -76.2275 227° Southwest 447 514 40,000  Level Washington Center
08:35AM 37.0653 -76.3494 231° Southwest 447 514 40,000  Level Washington Center
08:36AM 36.9894 -76.4708 232° Southwest 447 514 40,000  Level Washington Center
08:37AM 36.9156 -76.5894 232° Southwest 447 514 40,000  Level Washington Center
08:38AM 36.8414 -76.7106 233° Southwest 447 514 40,000  Level Washington Center
08:39AM 36.7528 -76.8156 224° Southwest 440 506 40,000  Level Washington Center
08:40AM 36.6517 -76.8967 213° Southwest 440 506 40,000  Level Washington Center
08:41AM 36.5467 -76.9700 209° Southwest 440 506 40,000  Level Washington Center
08:42AM 36.4394 -77.0403 208° Southwest 440 506 40,000  Level Washington Center
08:43AM 36.3261 -77.0872 198° South 435 501 40,000  Level Washington Center
08:44AM 36.2128 -77.1367 199° South 435 501 40,000  Level Washington Center
08:45AM 36.1017 -77.1808 198° South 429 494 40,000  Level Washington Center
08:46AM 35.9781 -77.2269 197° South 429 494 40,000  Level Washington Center
08:47AM 35.8625 -77.2758 199° South 429 494 40,000  Level Washington Center
08:48AM 35.7492 -77.3194 197° South 429 494 40,000  Level Washington Center
08:49AM 35.6317 -77.3656 198° South 429 494 40,000  Level Washington Center
08:50AM 35.5183 -77.4142 199° South 429 494 40,000  Level Washington Center
08:51AM 35.4028 -77.4572 197° South 429 494 40,000  Level Washington Center
08:52AM 35.2894 -77.5031 198° South 434 499 40,000  Level Washington Center
08:53AM 35.1742 -77.5486 198° South 434 499 40,000  Level Washington Center
08:54AM 35.0567 -77.5864 195° South 434 499 40,000  Level Washington Center
08:55AM 34.9411 -77.6267 196° South 434 499 40,000  Level Washington Center
08:56AM 34.8236 -77.6617 194° South 434 499 40,000  Level Washington Center
08:57AM 34.7083 -77.7017 196° South 434 499 40,000  Level Washington Center
08:58AM 34.5908 -77.7389 195° South 434 499 40,000  Level Washington Center
08:59AM 34.4775 -77.7764 195° South 434 499 40,000  Level Washington Center
09:00AM 34.3619 -77.8136 195° South 434 499 40,000  Level Washington Center
09:01AM 34.2383 -77.8478 193° South 442 509 40,000  Level Washington Center
09:02AM 34.1206 -77.8847 195° South 442 509 40,000  Level Washington Center
09:04AM 33.8717 -77.9653 195° South 445 512 40,000  Level Jacksonville Center
09:05AM 33.7542 -77.9994 194° South 445 512 40,000  Level Jacksonville Center
09:06AM 33.6364 -78.0358 194° South 439 505 40,000  Level Jacksonville Center
09:07AM 33.5189 -78.0722 194° South 439 505 40,000 -60 Level Jacksonville Center
09:08AM 33.4036 -78.1083 195° South 439 505 39,900  Descending Jacksonville Center
09:09AM 33.2861 -78.1469 195° South 439 505 40,000  Climbing Jacksonville Center
09:10AM 33.1683 -78.1806 193° South 439 505 40,000  Level Jacksonville Center
09:11AM 33.0486 -78.2164 194° South 439 505 40,000  Level Jacksonville Center
09:12AM 32.9331 -78.2522 195° South 439 505 40,000  Level Jacksonville Center
09:13AM 32.8156 -78.2878 194° South 434 499 40,000  Level Jacksonville Center
09:14AM 32.6997 -78.3208 194° South 429 494 40,000  Level Jacksonville Center
09:15AM 32.5842 -78.3539 194° South 429 494 40,000  Level Jacksonville Center
09:16AM 32.4633 -78.3647 184° South 429 494 40,000  Level Jacksonville Center
09:17AM 32.3697 -78.3744 185° South 429 494 40,000  Level Jacksonville Center
09:18AM 32.2344 -78.3861 184° South 429 494 40,000  Level Jacksonville Center
09:19AM 32.1136 -78.3919 182° South 429 494 40,000  Level Jacksonville Center
09:20AM 31.9950 -78.4003 183° South 429 494 40,000  Level Jacksonville Center
09:21AM 31.8783 -78.4033 181° South 435 501 40,000  Level Jacksonville Center
09:22AM 31.7594 -78.4067 181° South 435 501 40,000  Level Jacksonville Center
09:23AM 31.6447 -78.4122 182° South 428 493 40,000  Level Jacksonville Center
09:24AM 31.5222 -78.4256 185° South 428 493 40,000  Level Jacksonville Center
09:25AM 31.4075 -78.4358 184° South 428 493 40,000  Level Jacksonville Center
09:26AM 31.2872 -78.4539 187° South 428 493 40,000  Level Jacksonville Center
09:27AM 31.1647 -78.4767 189° South 438 504 40,000  Level Jacksonville Center
09:28AM 31.0444 -78.4992 189° South 445 512 40,000  Level Jacksonville Center
09:29AM 30.9139 -78.5269 190° South 445 512 40,000  Level Jacksonville Center
09:30AM 30.7917 -78.5519 190° South 446 513 40,000  Level Jacksonville Center
09:31AM 30.6717 -78.5792 191° South 441 507 40,000  Level Jacksonville Center
09:34AM 30.3269 -78.6892 195° South 461 531 40,000  Level Miami Center
09:35AM 30.2139 -78.7353 199° South 454 522 40,000  Level Miami Center
09:36AM 30.1006 -78.7836 200° South 444 511 40,000  Level Miami Center
09:37AM 29.9894 -78.8414 204° Southwest 439 505 40,000  Level Miami Center
09:38AM 29.8781 -78.8969 203° Southwest 439 505 40,000  Level Miami Center
09:39AM 29.7667 -78.9497 202° Southwest 439 505 40,000 -300 Level Miami Center
09:40AM 29.6514 -79.0000 201° Southwest 439 505 39,500 -780 Descending Miami Center
09:41AM 29.5419 -79.0575 205° Southwest 439 505 38,500 -960 Descending Miami Center
09:42AM 29.4325 -79.1147 204° Southwest 439 505 37,600 -780 Descending Miami Center
09:43AM 29.3414 -79.2058 221° Southwest 433 498 37,000 -300 Descending Miami Center
09:44AM 29.2586 -79.3017 225° Southwest 433 498 37,000 -60 Level Miami Center
09:45AM 29.1714 -79.3969 224° Southwest 433 498 36,900 -900 Descending Miami Center
09:46AM 29.0861 -79.4947 225° Southwest 433 498 35,300 -1,620 Descending Miami Center
09:47AM 28.9867 -79.5614 210° Southwest 418 481 33,700 -1,620 Descending Miami Center
09:48AM 28.8753 -79.6083 200° South 423 487 32,100 -1,380 Descending Miami Center
09:49AM 28.7656 -79.6719 207° Southwest 423 487 31,000 -1,020 Descending Miami Center
09:50AM 28.6539 -79.7331 206° Southwest 429 494 30,100 -900 Descending Miami Center
09:51AM 28.5397 -79.7986 207° Southwest 441 507 29,200 -960 Descending Miami Center
09:52AM 28.4278 -79.8642 207° Southwest 451 519 28,200 -900 Descending Miami Center
09:53AM 28.3286 -79.9228 207° Southwest 456 525 27,400 -1,020 Descending Miami Center
09:54AM 28.2017 -79.9969 207° Southwest 461 531 26,200 -1,140 Descending Miami Center
09:55AM 28.0897 -80.0528 204° Southwest 455 524 25,200 -1,020 Descending Miami Center
09:56AM 27.9739 -80.1036 201° Southwest 449 517 24,200 -1,020 Descending Miami Center
09:57AM 27.8522 -80.1258 189° South 437 503 23,200 -1,200 Descending Miami Center
09:58AM 27.7311 -80.1342 183° South 437 503 21,800 -1,800 Descending Miami Center
09:59AM 27.6142 -80.1333 180° South 437 503 19,600 -2,340 Descending Miami Center
10:00AM 27.5033 -80.1347 181° South 421 484 17,200 -2,100 Descending Miami Center
10:01AM 27.3928 -80.1339 180° South 405 466 15,400 -2,160 Descending Miami Center
10:02AM 27.2969 -80.1311 179° South 389 448 12,900 -2,040 Descending Miami Center
10:03AM 27.1842 -80.1281 179° South 373 429 11,400 -1,200 Descending Miami Center
10:04AM 27.0944 -80.1208 176° South 344 396 10,600 -960 Descending Miami Center
10:05AM 27.0153 -80.1139 176° South 306 352 9,500 -1,320 Descending Miami Center
10:06AM 26.9425 -80.1072 175° South 288 331 8,000 -1,440 Descending Miami Center
10:07AM 26.8653 -80.1028 177° South 288 331 6,700 -1,380 Descending Miami Center
10:08AM 26.7797 -80.0958 176° South 283 326 5,300 -840 Descending Miami Center
10:09AM 26.7150 -80.0917 177° South 276 318 5,100 -360 Descending Miami Center
10:11AM 26.5203 -80.0966 185° South  Level FlightAware Approximate
10:11AM 26.5303 -80.0378 185° South 258 297 4,200  Level Miami Center
10:12AM 26.4681 -80.0175 164° South 260 299 4,000 -60 Descending Miami Center
10:13AM 26.4036 -80.0111 175° South 239 275 4,100  Climbing Miami Center
10:14AM 26.3389 -80.0025 173° South 236 272 4,100  Level Miami Center
10:15AM 26.2681 -79.9961 175° South 236 272 4,100  Level Miami Center
10:16AM 26.2139 -79.9878 172° South 168 193 4,100 -300 Level Miami Center
10:17AM 26.1681 -79.9842 176° South 166 191 3,500 -720 Descending Miami Center
10:18AM 26.1281 -80.0039 204° Southwest 170 196 2,800 -720 Descending Miami Center
10:19AM 26.0836 -80.0328 210° Southwest 164 189 2,100 -840 Descending Miami Center
10:20AM 26.0742 -80.0742 256° West 143 165 1,200 -840 Descending Miami Center
10:21AM 26.0753 -80.1158 272° West 132 152 500 -720 Descending Miami Center
10:23AM 26.0667 -80.1500 230° Southwest  Level FlightAware Approximate
10:30AM 26.0726 -80.1527 230° Southwest  Level Estimated